KVOK/VOK METAR and TAF weather

Enter ICAO airport designator
Station Type Date Time Source
KVOK METAR 2021/10/22 19:56 UTC NOAA

KVOK 221956Z 32004KT 10SM FEW040 SCT100 BKN200 09/M01 A3002 RMK AO2A SLP177


Station Type Date Time Source
KVOK Decoded METAR 2021/10/22 19:56 UTC NOAA

Volk / Camp Douglas, WI, United States (KVOK) 43-56N 090-16W
Oct 22, 2021 - 03:56 PM EDT / 2021.10.22 1956 UTC
Wind: from the NW (320 degrees) at 5 MPH (4 KT):0
Visibility: 10 mile(s):0
Sky conditions: mostly cloudy
Temperature: 48 F (9 C)
Dew Point: 30 F (-1 C)
Relative Humidity: 49%
Pressure (altimeter): 30.02 in. Hg (1016 hPa)
ob: KVOK 221956Z 32004KT 10SM FEW040 SCT100 BKN200 09/M01 A3002 RMK AO2A SLP177
cycle: 20

Station Type Date Time Source
KVOK TAF 2021/10/22 17:36 UTC NOAA

TAF TAF
AMD KVOK 221730Z 2217/2323 35006KT 9999 FEW030 SCT130 BKN180 QNH3001INS
BECMG 2306/2307 34006KT 9999 BKN023 OVC035 620352 QNH3003INS
BECMG 2308/2309 34006KT 4800 BCFG SCT023 OVC035 620352 QNH3003INS
BECMG 2312/2313 34006KT 9999 NSW SCT016 BKN023 OVC035 620234 QNH3005INS
BECMG 2316/2317 35006KT 9999 FEW016 SCT023 QNH3000INS TX10/2221Z TNM04/2313Z LAST NO
AMDS AFT 2222 NEXT 2509

Example: see airport list